sensor_id;sensor_type;location;lat;lon;timestamp;P1;durP1;ratioP1;P2;durP2;ratioP2
35114;SDS011;21292;52.416;13.046;2023-04-15T00:02:15;74.65;;;34.95;;
35114;SDS011;21292;52.416;13.046;2023-04-15T00:04:44;75.38;;;33.45;;
35114;SDS011;21292;52.416;13.046;2023-04-15T00:07:14;77.25;;;35.40;;
35114;SDS011;21292;52.416;13.046;2023-04-15T00:09:43;82.43;;;37.05;;
35114;SDS011;21292;52.416;13.046;2023-04-15T00:12:12;80.25;;;36.33;;
35114;SDS011;21292;52.416;13.046;2023-04-15T00:14:40;82.18;;;38.22;;
35114;SDS011;21292;52.416;13.046;2023-04-15T00:17:08;79.00;;;36.03;;
35114;SDS011;21292;52.416;13.046;2023-04-15T00:19:37;84.40;;;36.92;;
35114;SDS011;21292;52.416;13.046;2023-04-15T00:22:06;86.43;;;38.35;;
35114;SDS011;21292;52.416;13.046;2023-04-15T00:24:36;86.18;;;37.95;;
35114;SDS011;21292;52.416;13.046;2023-04-15T00:27:04;95.80;;;39.75;;
35114;SDS011;21292;52.416;13.046;2023-04-15T00:29:32;97.20;;;40.10;;
35114;SDS011;21292;52.416;13.046;2023-04-15T00:32:01;97.53;;;39.80;;
35114;SDS011;21292;52.416;13.046;2023-04-15T00:34:30;97.30;;;41.33;;
35114;SDS011;21292;52.416;13.046;2023-04-15T00:36:59;87.05;;;39.90;;
35114;SDS011;21292;52.416;13.046;2023-04-15T00:39:28;100.00;;;42.03;;
35114;SDS011;21292;52.416;13.046;2023-04-15T00:42:00;104.03;;;43.13;;
35114;SDS011;21292;52.416;13.046;2023-04-15T00:44:30;103.47;;;41.50;;
35114;SDS011;21292;52.416;13.046;2023-04-15T00:47:01;103.80;;;44.35;;
35114;SDS011;21292;52.416;13.046;2023-04-15T00:49:34;102.15;;;43.45;;
35114;SDS011;21292;52.416;13.046;2023-04-15T00:52:02;102.35;;;42.65;;
35114;SDS011;21292;52.416;13.046;2023-04-15T00:54:30;98.07;;;43.10;;
35114;SDS011;21292;52.416;13.046;2023-04-15T00:57:01;106.82;;;40.70;;
35114;SDS011;21292;52.416;13.046;2023-04-15T00:59:29;109.78;;;45.63;;
35114;SDS011;21292;52.416;13.046;2023-04-15T01:01:58;106.38;;;43.42;;
35114;SDS011;21292;52.416;13.046;2023-04-15T01:04:27;117.22;;;43.67;;
35114;SDS011;21292;52.416;13.046;2023-04-15T01:06:56;107.05;;;44.70;;
35114;SDS011;21292;52.416;13.046;2023-04-15T01:09:25;114.57;;;44.75;;
35114;SDS011;21292;52.416;13.046;2023-04-15T01:11:56;113.88;;;45.58;;
35114;SDS011;21292;52.416;13.046;2023-04-15T01:14:25;123.53;;;48.55;;
35114;SDS011;21292;52.416;13.046;2023-04-15T01:16:54;118.80;;;48.08;;
35114;SDS011;21292;52.416;13.046;2023-04-15T01:19:24;127.78;;;48.08;;
35114;SDS011;21292;52.416;13.046;2023-04-15T01:21:53;130.30;;;50.15;;
35114;SDS011;21292;52.416;13.046;2023-04-15T01:24:22;131.82;;;49.17;;
35114;SDS011;21292;52.416;13.046;2023-04-15T01:26:52;131.82;;;51.38;;
35114;SDS011;21292;52.416;13.046;2023-04-15T01:29:20;125.43;;;49.20;;
35114;SDS011;21292;52.416;13.046;2023-04-15T01:31:50;126.85;;;48.72;;
35114;SDS011;21292;52.416;13.046;2023-04-15T01:34:18;130.73;;;53.22;;
35114;SDS011;21292;52.416;13.046;2023-04-15T01:36:49;133.80;;;50.97;;
35114;SDS011;21292;52.416;13.046;2023-04-15T01:39:18;143.70;;;53.45;;
35114;SDS011;21292;52.416;13.046;2023-04-15T01:41:46;145.85;;;49.67;;
35114;SDS011;21292;52.416;13.046;2023-04-15T01:44:23;136.95;;;52.13;;
35114;SDS011;21292;52.416;13.046;2023-04-15T01:47:11;139.57;;;52.75;;
35114;SDS011;21292;52.416;13.046;2023-04-15T01:49:40;137.13;;;51.08;;
35114;SDS011;21292;52.416;13.046;2023-04-15T01:52:08;149.52;;;54.63;;
35114;SDS011;21292;52.416;13.046;2023-04-15T01:54:36;141.88;;;54.28;;
35114;SDS011;21292;52.416;13.046;2023-04-15T01:57:04;146.20;;;56.28;;
35114;SDS011;21292;52.416;13.046;2023-04-15T01:59:34;146.43;;;54.97;;
35114;SDS011;21292;52.416;13.046;2023-04-15T02:02:03;142.65;;;54.65;;
35114;SDS011;21292;52.416;13.046;2023-04-15T02:04:31;148.65;;;55.20;;
35114;SDS011;21292;52.416;13.046;2023-04-15T02:06:59;156.50;;;58.67;;
35114;SDS011;21292;52.416;13.046;2023-04-15T02:09:28;147.95;;;56.92;;
35114;SDS011;21292;52.416;13.046;2023-04-15T02:11:59;159.57;;;59.05;;
35114;SDS011;21292;52.416;13.046;2023-04-15T02:14:30;159.45;;;58.97;;
35114;SDS011;21292;52.416;13.046;2023-04-15T02:17:00;158.52;;;58.83;;
35114;SDS011;21292;52.416;13.046;2023-04-15T02:19:33;158.35;;;57.03;;
35114;SDS011;21292;52.416;13.046;2023-04-15T02:22:01;160.85;;;55.45;;
35114;SDS011;21292;52.416;13.046;2023-04-15T02:24:31;146.60;;;57.90;;
35114;SDS011;21292;52.416;13.046;2023-04-15T02:27:19;165.30;;;59.90;;
35114;SDS011;21292;52.416;13.046;2023-04-15T02:29:48;164.70;;;59.38;;
35114;SDS011;21292;52.416;13.046;2023-04-15T02:32:18;153.73;;;60.30;;
35114;SDS011;21292;52.416;13.046;2023-04-15T02:34:50;169.05;;;60.40;;
35114;SDS011;21292;52.416;13.046;2023-04-15T02:37:18;162.48;;;57.60;;
35114;SDS011;21292;52.416;13.046;2023-04-15T02:39:49;166.50;;;60.03;;
35114;SDS011;21292;52.416;13.046;2023-04-15T02:42:24;159.98;;;57.65;;
35114;SDS011;21292;52.416;13.046;2023-04-15T02:44:54;161.77;;;57.88;;
35114;SDS011;21292;52.416;13.046;2023-04-15T02:47:25;163.85;;;59.80;;
35114;SDS011;21292;52.416;13.046;2023-04-15T02:49:54;168.77;;;59.90;;
35114;SDS011;21292;52.416;13.046;2023-04-15T02:52:30;171.88;;;59.38;;
35114;SDS011;21292;52.416;13.046;2023-04-15T02:55:05;169.88;;;60.83;;
35114;SDS011;21292;52.416;13.046;2023-04-15T02:57:33;163.35;;;58.78;;
35114;SDS011;21292;52.416;13.046;2023-04-15T03:00:05;183.25;;;61.55;;
35114;SDS011;21292;52.416;13.046;2023-04-15T03:05:10;157.10;;;56.33;;
35114;SDS011;21292;52.416;13.046;2023-04-15T03:07:38;170.30;;;60.08;;
35114;SDS011;21292;52.416;13.046;2023-04-15T03:10:07;167.05;;;58.63;;
35114;SDS011;21292;52.416;13.046;2023-04-15T03:12:43;176.45;;;62.05;;
35114;SDS011;21292;52.416;13.046;2023-04-15T03:15:12;166.23;;;60.00;;
35114;SDS011;21292;52.416;13.046;2023-04-15T03:17:41;189.30;;;61.78;;
35114;SDS011;21292;52.416;13.046;2023-04-15T03:20:09;182.30;;;63.63;;
35114;SDS011;21292;52.416;13.046;2023-04-15T03:22:38;165.95;;;60.08;;
35114;SDS011;21292;52.416;13.046;2023-04-15T03:25:14;174.45;;;62.75;;
35114;SDS011;21292;52.416;13.046;2023-04-15T03:27:58;169.30;;;59.03;;
35114;SDS011;21292;52.416;13.046;2023-04-15T03:30:31;167.55;;;59.85;;
35114;SDS011;21292;52.416;13.046;2023-04-15T03:33:06;180.05;;;64.72;;
35114;SDS011;21292;52.416;13.046;2023-04-15T03:35:36;184.88;;;65.22;;
35114;SDS011;21292;52.416;13.046;2023-04-15T03:38:04;189.13;;;63.63;;
35114;SDS011;21292;52.416;13.046;2023-04-15T03:40:37;183.43;;;61.80;;
35114;SDS011;21292;52.416;13.046;2023-04-15T03:43:05;178.23;;;61.00;;
35114;SDS011;21292;52.416;13.046;2023-04-15T03:45:39;172.43;;;64.00;;
35114;SDS011;21292;52.416;13.046;2023-04-15T03:48:18;181.77;;;65.95;;
35114;SDS011;21292;52.416;13.046;2023-04-15T03:50:48;184.20;;;62.58;;
35114;SDS011;21292;52.416;13.046;2023-04-15T03:53:17;178.65;;;67.80;;
35114;SDS011;21292;52.416;13.046;2023-04-15T03:55:45;161.00;;;60.75;;
35114;SDS011;21292;52.416;13.046;2023-04-15T03:58:13;178.40;;;65.53;;
35114;SDS011;21292;52.416;13.046;2023-04-15T04:00:46;168.73;;;63.20;;
35114;SDS011;21292;52.416;13.046;2023-04-15T04:03:28;183.88;;;61.78;;
35114;SDS011;21292;52.416;13.046;2023-04-15T04:05:58;173.43;;;60.38;;
35114;SDS011;21292;52.416;13.046;2023-04-15T04:08:27;184.27;;;62.15;;
35114;SDS011;21292;52.416;13.046;2023-04-15T04:10:56;183.85;;;62.20;;
35114;SDS011;21292;52.416;13.046;2023-04-15T04:13:31;184.75;;;62.53;;
35114;SDS011;21292;52.416;13.046;2023-04-15T04:16:00;173.45;;;63.67;;
35114;SDS011;21292;52.416;13.046;2023-04-15T04:18:32;164.03;;;60.90;;
35114;SDS011;21292;52.416;13.046;2023-04-15T04:21:02;177.15;;;60.70;;
35114;SDS011;21292;52.416;13.046;2023-04-15T04:23:30;159.38;;;62.70;;
35114;SDS011;21292;52.416;13.046;2023-04-15T04:25:58;165.35;;;64.78;;
35114;SDS011;21292;52.416;13.046;2023-04-15T04:28:27;172.55;;;62.25;;
35114;SDS011;21292;52.416;13.046;2023-04-15T04:30:57;165.15;;;58.85;;
35114;SDS011;21292;52.416;13.046;2023-04-15T04:33:34;167.50;;;60.85;;
35114;SDS011;21292;52.416;13.046;2023-04-15T04:36:02;174.15;;;62.35;;
35114;SDS011;21292;52.416;13.046;2023-04-15T04:38:31;172.45;;;63.17;;
35114;SDS011;21292;52.416;13.046;2023-04-15T04:43:32;156.00;;;58.33;;
35114;SDS011;21292;52.416;13.046;2023-04-15T04:46:00;167.35;;;60.15;;
35114;SDS011;21292;52.416;13.046;2023-04-15T04:48:28;155.48;;;60.80;;
35114;SDS011;21292;52.416;13.046;2023-04-15T04:50:59;171.95;;;59.72;;
35114;SDS011;21292;52.416;13.046;2023-04-15T04:53:28;156.93;;;58.58;;
35114;SDS011;21292;52.416;13.046;2023-04-15T04:55:57;146.00;;;59.38;;
35114;SDS011;21292;52.416;13.046;2023-04-15T04:58:28;147.23;;;57.85;;
35114;SDS011;21292;52.416;13.046;2023-04-15T05:00:56;145.80;;;58.75;;
35114;SDS011;21292;52.416;13.046;2023-04-15T05:03:24;154.00;;;60.67;;
35114;SDS011;21292;52.416;13.046;2023-04-15T05:05:55;156.48;;;57.30;;
35114;SDS011;21292;52.416;13.046;2023-04-15T05:08:26;150.13;;;59.55;;
35114;SDS011;21292;52.416;13.046;2023-04-15T05:10:55;153.82;;;59.10;;
35114;SDS011;21292;52.416;13.046;2023-04-15T05:13:24;152.63;;;60.42;;
35114;SDS011;21292;52.416;13.046;2023-04-15T05:15:52;150.35;;;58.42;;
35114;SDS011;21292;52.416;13.046;2023-04-15T05:18:20;140.77;;;56.55;;
35114;SDS011;21292;52.416;13.046;2023-04-15T05:20:49;160.40;;;58.55;;
35114;SDS011;21292;52.416;13.046;2023-04-15T05:23:17;136.98;;;57.40;;
35114;SDS011;21292;52.416;13.046;2023-04-15T05:25:47;142.02;;;56.70;;
35114;SDS011;21292;52.416;13.046;2023-04-15T05:28:16;148.45;;;57.40;;
35114;SDS011;21292;52.416;13.046;2023-04-15T05:30:44;137.77;;;57.83;;
35114;SDS011;21292;52.416;13.046;2023-04-15T05:33:13;137.93;;;56.33;;
35114;SDS011;21292;52.416;13.046;2023-04-15T05:35:43;140.23;;;55.10;;
35114;SDS011;21292;52.416;13.046;2023-04-15T05:38:14;131.50;;;56.38;;
35114;SDS011;21292;52.416;13.046;2023-04-15T05:40:42;138.95;;;56.17;;
35114;SDS011;21292;52.416;13.046;2023-04-15T05:43:11;140.40;;;56.03;;
35114;SDS011;21292;52.416;13.046;2023-04-15T05:45:41;130.25;;;55.70;;
35114;SDS011;21292;52.416;13.046;2023-04-15T05:48:10;128.40;;;53.95;;
35114;SDS011;21292;52.416;13.046;2023-04-15T05:50:39;122.35;;;54.33;;
35114;SDS011;21292;52.416;13.046;2023-04-15T05:53:08;128.48;;;55.20;;
35114;SDS011;21292;52.416;13.046;2023-04-15T05:55:36;135.63;;;53.78;;
35114;SDS011;21292;52.416;13.046;2023-04-15T05:58:04;119.05;;;53.13;;
35114;SDS011;21292;52.416;13.046;2023-04-15T06:00:33;116.18;;;52.03;;
35114;SDS011;21292;52.416;13.046;2023-04-15T06:03:02;120.57;;;54.38;;
35114;SDS011;21292;52.416;13.046;2023-04-15T06:05:31;124.88;;;52.83;;
35114;SDS011;21292;52.416;13.046;2023-04-15T06:08:03;114.00;;;51.40;;
35114;SDS011;21292;52.416;13.046;2023-04-15T06:10:32;101.72;;;47.60;;
35114;SDS011;21292;52.416;13.046;2023-04-15T06:13:02;110.32;;;52.00;;
35114;SDS011;21292;52.416;13.046;2023-04-15T06:15:36;111.10;;;48.22;;
35114;SDS011;21292;52.416;13.046;2023-04-15T06:18:04;101.03;;;48.97;;
35114;SDS011;21292;52.416;13.046;2023-04-15T06:20:32;94.78;;;48.38;;
35114;SDS011;21292;52.416;13.046;2023-04-15T06:23:00;89.70;;;46.33;;
35114;SDS011;21292;52.416;13.046;2023-04-15T06:25:29;91.97;;;47.85;;
35114;SDS011;21292;52.416;13.046;2023-04-15T06:28:01;91.53;;;45.13;;
35114;SDS011;21292;52.416;13.046;2023-04-15T06:30:29;90.60;;;47.45;;
35114;SDS011;21292;52.416;13.046;2023-04-15T06:33:04;91.43;;;46.00;;
35114;SDS011;21292;52.416;13.046;2023-04-15T06:35:34;85.22;;;44.13;;
35114;SDS011;21292;52.416;13.046;2023-04-15T06:38:02;82.63;;;43.40;;
35114;SDS011;21292;52.416;13.046;2023-04-15T06:40:30;77.78;;;42.33;;
35114;SDS011;21292;52.416;13.046;2023-04-15T06:43:00;70.30;;;39.42;;
35114;SDS011;21292;52.416;13.046;2023-04-15T06:45:28;80.70;;;40.45;;
35114;SDS011;21292;52.416;13.046;2023-04-15T06:48:01;73.93;;;39.83;;
35114;SDS011;21292;52.416;13.046;2023-04-15T06:50:32;74.15;;;41.38;;
35114;SDS011;21292;52.416;13.046;2023-04-15T06:53:01;69.00;;;38.90;;
35114;SDS011;21292;52.416;13.046;2023-04-15T06:55:31;71.30;;;38.05;;
35114;SDS011;21292;52.416;13.046;2023-04-15T06:58:01;54.15;;;34.78;;
35114;SDS011;21292;52.416;13.046;2023-04-15T07:00:29;62.53;;;34.40;;
35114;SDS011;21292;52.416;13.046;2023-04-15T07:02:59;54.53;;;33.53;;
35114;SDS011;21292;52.416;13.046;2023-04-15T07:05:33;57.40;;;33.85;;
35114;SDS011;21292;52.416;13.046;2023-04-15T07:08:08;53.75;;;31.52;;
35114;SDS011;21292;52.416;13.046;2023-04-15T07:10:41;42.97;;;26.48;;
35114;SDS011;21292;52.416;13.046;2023-04-15T07:13:09;47.40;;;29.13;;
35114;SDS011;21292;52.416;13.046;2023-04-15T07:15:37;42.47;;;27.60;;
35114;SDS011;21292;52.416;13.046;2023-04-15T07:18:05;38.85;;;25.33;;
35114;SDS011;21292;52.416;13.046;2023-04-15T07:20:35;36.47;;;24.60;;
35114;SDS011;21292;52.416;13.046;2023-04-15T07:23:03;36.28;;;23.85;;
35114;SDS011;21292;52.416;13.046;2023-04-15T07:25:31;33.67;;;22.67;;
35114;SDS011;21292;52.416;13.046;2023-04-15T07:28:00;39.08;;;24.02;;
35114;SDS011;21292;52.416;13.046;2023-04-15T07:30:29;37.50;;;22.27;;
35114;SDS011;21292;52.416;13.046;2023-04-15T07:33:02;32.95;;;20.45;;
35114;SDS011;21292;52.416;13.046;2023-04-15T07:35:30;32.42;;;21.38;;
35114;SDS011;21292;52.416;13.046;2023-04-15T07:38:00;28.70;;;19.92;;
35114;SDS011;21292;52.416;13.046;2023-04-15T07:40:29;35.50;;;22.48;;
35114;SDS011;21292;52.416;13.046;2023-04-15T07:42:57;28.90;;;19.67;;
35114;SDS011;21292;52.416;13.046;2023-04-15T07:45:25;35.10;;;18.73;;
35114;SDS011;21292;52.416;13.046;2023-04-15T07:47:56;28.42;;;20.65;;
35114;SDS011;21292;52.416;13.046;2023-04-15T07:50:24;30.73;;;21.73;;
35114;SDS011;21292;52.416;13.046;2023-04-15T07:52:53;28.17;;;20.95;;
35114;SDS011;21292;52.416;13.046;2023-04-15T07:55:23;34.17;;;19.88;;
35114;SDS011;21292;52.416;13.046;2023-04-15T07:57:53;32.03;;;21.63;;
35114;SDS011;21292;52.416;13.046;2023-04-15T08:00:24;32.90;;;21.20;;
35114;SDS011;21292;52.416;13.046;2023-04-15T08:02:52;30.38;;;20.15;;
35114;SDS011;21292;52.416;13.046;2023-04-15T08:05:23;29.25;;;20.02;;
35114;SDS011;21292;52.416;13.046;2023-04-15T08:07:52;25.83;;;18.52;;
35114;SDS011;21292;52.416;13.046;2023-04-15T08:10:20;29.42;;;20.58;;
35114;SDS011;21292;52.416;13.046;2023-04-15T08:12:51;26.45;;;18.10;;
35114;SDS011;21292;52.416;13.046;2023-04-15T08:15:31;28.23;;;19.27;;
35114;SDS011;21292;52.416;13.046;2023-04-15T08:17:59;29.17;;;19.70;;
35114;SDS011;21292;52.416;13.046;2023-04-15T08:20:28;24.67;;;18.13;;
35114;SDS011;21292;52.416;13.046;2023-04-15T08:22:56;26.05;;;19.92;;
35114;SDS011;21292;52.416;13.046;2023-04-15T08:25:25;27.70;;;18.00;;
35114;SDS011;21292;52.416;13.046;2023-04-15T08:27:55;25.67;;;19.58;;
35114;SDS011;21292;52.416;13.046;2023-04-15T08:30:26;27.60;;;19.40;;
35114;SDS011;21292;52.416;13.046;2023-04-15T08:32:55;28.73;;;18.48;;
35114;SDS011;21292;52.416;13.046;2023-04-15T08:35:24;28.88;;;19.60;;
35114;SDS011;21292;52.416;13.046;2023-04-15T08:37:59;26.63;;;18.42;;
35114;SDS011;21292;52.416;13.046;2023-04-15T08:40:29;30.40;;;18.50;;
35114;SDS011;21292;52.416;13.046;2023-04-15T08:43:09;27.90;;;18.77;;
35114;SDS011;21292;52.416;13.046;2023-04-15T08:45:39;24.15;;;18.35;;
35114;SDS011;21292;52.416;13.046;2023-04-15T08:48:09;24.27;;;17.73;;
35114;SDS011;21292;52.416;13.046;2023-04-15T08:50:46;27.20;;;18.38;;
35114;SDS011;21292;52.416;13.046;2023-04-15T08:53:15;24.10;;;17.30;;
35114;SDS011;21292;52.416;13.046;2023-04-15T08:55:44;26.27;;;18.67;;
35114;SDS011;21292;52.416;13.046;2023-04-15T08:58:21;26.20;;;18.52;;
35114;SDS011;21292;52.416;13.046;2023-04-15T09:00:50;26.55;;;18.83;;
35114;SDS011;21292;52.416;13.046;2023-04-15T09:03:19;30.13;;;19.98;;
35114;SDS011;21292;52.416;13.046;2023-04-15T09:05:49;23.45;;;17.50;;
35114;SDS011;21292;52.416;13.046;2023-04-15T09:08:19;25.50;;;18.23;;
35114;SDS011;21292;52.416;13.046;2023-04-15T09:10:47;28.35;;;19.05;;
35114;SDS011;21292;52.416;13.046;2023-04-15T09:13:16;24.55;;;18.95;;
35114;SDS011;21292;52.416;13.046;2023-04-15T09:15:50;33.25;;;19.70;;
35114;SDS011;21292;52.416;13.046;2023-04-15T09:18:26;24.08;;;18.70;;
35114;SDS011;21292;52.416;13.046;2023-04-15T09:21:03;22.17;;;17.95;;
35114;SDS011;21292;52.416;13.046;2023-04-15T09:23:32;26.73;;;18.65;;
35114;SDS011;21292;52.416;13.046;2023-04-15T09:26:01;27.90;;;19.73;;
35114;SDS011;21292;52.416;13.046;2023-04-15T09:28:30;28.15;;;19.95;;
35114;SDS011;21292;52.416;13.046;2023-04-15T09:31:01;24.67;;;18.58;;
35114;SDS011;21292;52.416;13.046;2023-04-15T09:33:29;25.63;;;18.40;;
35114;SDS011;21292;52.416;13.046;2023-04-15T09:36:01;24.45;;;17.40;;
35114;SDS011;21292;52.416;13.046;2023-04-15T09:38:30;25.27;;;18.98;;
35114;SDS011;21292;52.416;13.046;2023-04-15T09:40:58;22.77;;;17.70;;
35114;SDS011;21292;52.416;13.046;2023-04-15T09:43:36;24.92;;;19.40;;
35114;SDS011;21292;52.416;13.046;2023-04-15T09:46:06;26.20;;;18.35;;
35114;SDS011;21292;52.416;13.046;2023-04-15T09:48:36;28.80;;;20.25;;
35114;SDS011;21292;52.416;13.046;2023-04-15T09:51:05;25.98;;;18.98;;
35114;SDS011;21292;52.416;13.046;2023-04-15T09:53:33;25.63;;;18.90;;
35114;SDS011;21292;52.416;13.046;2023-04-15T09:56:02;26.65;;;19.85;;
35114;SDS011;21292;52.416;13.046;2023-04-15T09:58:34;28.40;;;20.23;;
35114;SDS011;21292;52.416;13.046;2023-04-15T10:01:08;30.15;;;20.02;;
35114;SDS011;21292;52.416;13.046;2023-04-15T10:03:37;27.17;;;20.50;;
35114;SDS011;21292;52.416;13.046;2023-04-15T10:06:12;30.65;;;20.08;;
35114;SDS011;21292;52.416;13.046;2023-04-15T10:08:42;28.48;;;20.95;;
35114;SDS011;21292;52.416;13.046;2023-04-15T10:11:10;32.47;;;22.38;;
35114;SDS011;21292;52.416;13.046;2023-04-15T10:13:41;37.83;;;25.25;;
35114;SDS011;21292;52.416;13.046;2023-04-15T10:16:11;33.80;;;25.10;;
35114;SDS011;21292;52.416;13.046;2023-04-15T10:18:42;30.90;;;23.60;;
35114;SDS011;21292;52.416;13.046;2023-04-15T10:21:12;33.50;;;23.55;;
35114;SDS011;21292;52.416;13.046;2023-04-15T10:26:13;29.40;;;22.80;;
35114;SDS011;21292;52.416;13.046;2023-04-15T10:28:43;29.13;;;22.88;;
35114;SDS011;21292;52.416;13.046;2023-04-15T10:31:14;29.48;;;22.88;;
35114;SDS011;21292;52.416;13.046;2023-04-15T10:33:42;28.50;;;22.75;;
35114;SDS011;21292;52.416;13.046;2023-04-15T10:36:11;29.27;;;22.13;;
35114;SDS011;21292;52.416;13.046;2023-04-15T10:38:41;31.98;;;23.13;;
35114;SDS011;21292;52.416;13.046;2023-04-15T10:41:14;28.50;;;22.73;;
35114;SDS011;21292;52.416;13.046;2023-04-15T10:43:48;33.00;;;22.70;;
35114;SDS011;21292;52.416;13.046;2023-04-15T10:49:06;35.30;;;24.30;;
35114;SDS011;21292;52.416;13.046;2023-04-15T10:51:37;33.35;;;25.40;;
35114;SDS011;21292;52.416;13.046;2023-04-15T10:54:12;31.40;;;23.83;;
35114;SDS011;21292;52.416;13.046;2023-04-15T10:56:41;33.53;;;25.10;;
35114;SDS011;21292;52.416;13.046;2023-04-15T10:59:10;37.25;;;26.67;;
35114;SDS011;21292;52.416;13.046;2023-04-15T11:01:52;34.00;;;26.65;;
35114;SDS011;21292;52.416;13.046;2023-04-15T11:07:32;34.88;;;25.67;;
35114;SDS011;21292;52.416;13.046;2023-04-15T11:13:19;33.05;;;24.90;;
35114;SDS011;21292;52.416;13.046;2023-04-15T11:15:59;32.22;;;24.73;;
35114;SDS011;21292;52.416;13.046;2023-04-15T11:18:31;34.30;;;25.95;;
35114;SDS011;21292;52.416;13.046;2023-04-15T11:21:03;33.63;;;24.73;;
35114;SDS011;21292;52.416;13.046;2023-04-15T11:23:34;32.55;;;23.58;;
35114;SDS011;21292;52.416;13.046;2023-04-15T11:26:05;35.13;;;25.48;;
35114;SDS011;21292;52.416;13.046;2023-04-15T11:28:36;33.63;;;25.13;;
35114;SDS011;21292;52.416;13.046;2023-04-15T11:31:06;38.20;;;27.38;;
35114;SDS011;21292;52.416;13.046;2023-04-15T11:33:43;35.28;;;25.95;;
35114;SDS011;21292;52.416;13.046;2023-04-15T11:36:13;36.70;;;27.23;;
35114;SDS011;21292;52.416;13.046;2023-04-15T11:38:46;35.67;;;25.85;;
35114;SDS011;21292;52.416;13.046;2023-04-15T11:41:19;41.58;;;27.73;;
35114;SDS011;21292;52.416;13.046;2023-04-15T11:43:48;35.03;;;25.20;;
35114;SDS011;21292;52.416;13.046;2023-04-15T11:46:19;40.33;;;26.40;;
35114;SDS011;21292;52.416;13.046;2023-04-15T11:48:50;36.05;;;25.70;;
35114;SDS011;21292;52.416;13.046;2023-04-15T11:51:19;38.92;;;27.30;;
35114;SDS011;21292;52.416;13.046;2023-04-15T11:53:49;35.97;;;24.80;;
35114;SDS011;21292;52.416;13.046;2023-04-15T11:56:18;36.95;;;25.30;;
35114;SDS011;21292;52.416;13.046;2023-04-15T11:58:51;34.42;;;25.52;;
35114;SDS011;21292;52.416;13.046;2023-04-15T12:01:29;37.28;;;25.75;;
35114;SDS011;21292;52.416;13.046;2023-04-15T12:03:59;36.20;;;25.42;;
35114;SDS011;21292;52.416;13.046;2023-04-15T12:06:33;38.25;;;27.13;;
35114;SDS011;21292;52.416;13.046;2023-04-15T12:09:04;36.55;;;26.05;;
35114;SDS011;21292;52.416;13.046;2023-04-15T12:11:36;33.70;;;25.35;;
35114;SDS011;21292;52.416;13.046;2023-04-15T12:14:07;37.28;;;26.42;;
35114;SDS011;21292;52.416;13.046;2023-04-15T12:16:38;38.33;;;26.50;;
35114;SDS011;21292;52.416;13.046;2023-04-15T12:19:16;42.30;;;28.55;;
35114;SDS011;21292;52.416;13.046;2023-04-15T12:21:47;38.53;;;28.33;;
35114;SDS011;21292;52.416;13.046;2023-04-15T12:24:18;39.65;;;28.73;;
35114;SDS011;21292;52.416;13.046;2023-04-15T12:26:50;37.65;;;28.67;;
35114;SDS011;21292;52.416;13.046;2023-04-15T12:29:23;42.00;;;28.70;;
35114;SDS011;21292;52.416;13.046;2023-04-15T12:31:53;39.33;;;28.77;;
35114;SDS011;21292;52.416;13.046;2023-04-15T12:34:27;41.50;;;28.25;;
35114;SDS011;21292;52.416;13.046;2023-04-15T12:36:56;43.08;;;28.38;;
35114;SDS011;21292;52.416;13.046;2023-04-15T12:39:28;41.38;;;30.25;;
35114;SDS011;21292;52.416;13.046;2023-04-15T12:41:58;39.78;;;27.33;;
35114;SDS011;21292;52.416;13.046;2023-04-15T12:44:27;40.80;;;29.27;;
35114;SDS011;21292;52.416;13.046;2023-04-15T12:46:56;37.47;;;27.52;;
35114;SDS011;21292;52.416;13.046;2023-04-15T12:49:29;44.58;;;27.40;;
35114;SDS011;21292;52.416;13.046;2023-04-15T12:51:58;39.00;;;27.98;;
35114;SDS011;21292;52.416;13.046;2023-04-15T12:54:28;37.63;;;27.27;;
35114;SDS011;21292;52.416;13.046;2023-04-15T12:56:59;43.53;;;29.63;;
35114;SDS011;21292;52.416;13.046;2023-04-15T12:59:33;38.90;;;25.50;;
35114;SDS011;21292;52.416;13.046;2023-04-15T13:02:01;40.60;;;28.95;;
35114;SDS011;21292;52.416;13.046;2023-04-15T13:04:35;36.17;;;24.48;;
35114;SDS011;21292;52.416;13.046;2023-04-15T13:07:03;35.78;;;22.10;;
35114;SDS011;21292;52.416;13.046;2023-04-15T13:09:32;33.50;;;23.83;;
35114;SDS011;21292;52.416;13.046;2023-04-15T13:12:01;32.58;;;25.45;;
35114;SDS011;21292;52.416;13.046;2023-04-15T13:14:31;35.58;;;25.63;;
35114;SDS011;21292;52.416;13.046;2023-04-15T13:17:00;29.75;;;21.25;;
35114;SDS011;21292;52.416;13.046;2023-04-15T13:19:38;31.55;;;22.50;;
35114;SDS011;21292;52.416;13.046;2023-04-15T13:22:06;34.30;;;23.15;;
35114;SDS011;21292;52.416;13.046;2023-04-15T13:24:37;31.10;;;23.60;;
35114;SDS011;21292;52.416;13.046;2023-04-15T13:27:10;36.10;;;25.15;;
35114;SDS011;21292;52.416;13.046;2023-04-15T13:29:39;37.20;;;24.92;;
35114;SDS011;21292;52.416;13.046;2023-04-15T13:32:13;29.95;;;23.92;;
35114;SDS011;21292;52.416;13.046;2023-04-15T13:34:43;34.70;;;24.52;;
35114;SDS011;21292;52.416;13.046;2023-04-15T13:37:13;34.70;;;22.75;;
35114;SDS011;21292;52.416;13.046;2023-04-15T13:39:46;28.77;;;22.02;;
35114;SDS011;21292;52.416;13.046;2023-04-15T13:42:15;33.97;;;23.52;;
35114;SDS011;21292;52.416;13.046;2023-04-15T13:44:44;30.85;;;22.63;;
35114;SDS011;21292;52.416;13.046;2023-04-15T13:47:17;27.05;;;21.20;;
35114;SDS011;21292;52.416;13.046;2023-04-15T13:49:50;24.92;;;19.13;;
35114;SDS011;21292;52.416;13.046;2023-04-15T13:52:22;32.95;;;22.90;;
35114;SDS011;21292;52.416;13.046;2023-04-15T13:54:52;27.63;;;20.30;;
35114;SDS011;21292;52.416;13.046;2023-04-15T13:57:40;29.95;;;21.48;;
35114;SDS011;21292;52.416;13.046;2023-04-15T14:00:10;25.25;;;19.95;;
35114;SDS011;21292;52.416;13.046;2023-04-15T14:02:43;32.85;;;20.92;;
35114;SDS011;21292;52.416;13.046;2023-04-15T14:05:13;26.92;;;19.77;;
35114;SDS011;21292;52.416;13.046;2023-04-15T14:07:42;25.88;;;20.38;;
35114;SDS011;21292;52.416;13.046;2023-04-15T14:10:12;23.90;;;19.75;;
35114;SDS011;21292;52.416;13.046;2023-04-15T14:12:43;24.83;;;19.02;;
35114;SDS011;21292;52.416;13.046;2023-04-15T14:15:12;25.90;;;19.23;;
35114;SDS011;21292;52.416;13.046;2023-04-15T14:17:44;28.35;;;20.90;;
35114;SDS011;21292;52.416;13.046;2023-04-15T14:20:15;29.13;;;19.77;;
35114;SDS011;21292;52.416;13.046;2023-04-15T14:22:53;27.52;;;20.58;;
35114;SDS011;21292;52.416;13.046;2023-04-15T14:25:23;26.67;;;20.25;;
35114;SDS011;21292;52.416;13.046;2023-04-15T14:27:59;27.45;;;19.17;;
35114;SDS011;21292;52.416;13.046;2023-04-15T14:30:29;24.25;;;19.50;;
35114;SDS011;21292;52.416;13.046;2023-04-15T14:33:01;30.17;;;20.52;;
35114;SDS011;21292;52.416;13.046;2023-04-15T14:35:32;28.20;;;21.40;;
35114;SDS011;21292;52.416;13.046;2023-04-15T14:38:01;26.88;;;19.75;;
35114;SDS011;21292;52.416;13.046;2023-04-15T14:40:32;29.38;;;20.75;;